Stockton Metropolitan Airport
KSCK : now visible

Airfield :











YOU CAN JOIN US ON...

 
LOGIN :

Register | Disclaimer

   EN    FR    IT 

 









Legend :    VFR   Marginal VFR   IFR   Intensive IFR   Very Intensive IFR
Visi :
Ceiling :
>= 8 km
>= 3000ft
5 to 8 km
1000 to 3000 ft
1500m to 5 km
500 to 1000 ft
800 to 1500m
200 to 500 ft
< 800m
< 200 ft
Symbols :   Thunderstorms  Fog  Heavy snow  Heavy precipitations  Wind > 20 kt







- Airport Elevation : 33 ft


KSCK - Stockton Metropolitan

CURRENT METAR :
  • 181055Z AUTO 26008KT 10SM CLR 17/13 A2993 RMK AO2 SLP136 T01720128

EXPIRED METARs :
  • 180955Z AUTO 27008KT 10SM CLR 17/13 A2994 RMK AO2 SLP138 T01720128
  • 180855Z AUTO 26008KT 10SM CLR 17/13 A2994 RMK AO2 SLP139 T01720128 55004

TAF KSCK
Valid from the 18 at 12:00 until the 19 at 12:00 UTC


181136Z 1812/1912 26011KT P6SM SKC
FM181300 20006KT P6SM OVC100
TEMPO 1818/1822 -SHRA BKN050
FM182200 27010G18KT P6SM BKN050
FM190500 26009KT P6SM FEW250
No reported NOTAMs for that airfield.



MET'MAP, your aeronautical weather chart ! - Copyright ORBIFLY December 2007 - Disclaimer

ORBIFLY MET'MAP TEAM :

Programming & Development : Alexandra Zaïnal
Concept & Development : Baudouin d'Aumeries
Co-Development & Prog : Marc-Olivier Méhu
Technical & hardware support : Manuel Goepfert

Contact : metmap@orbifly.com




SOURCES & CREDITS :

   NOAA       Earth
Advisory